createdAt,value
2023-03-10T07:49:47.428Z,100.00
2023-03-10T07:52:17.006Z,100.00
2023-03-10T07:54:44.696Z,100.00
2023-03-10T07:57:14.722Z,100.00
2023-03-10T08:01:57.107Z,100.00
2023-03-10T08:04:24.572Z,100.00
2023-03-10T08:06:51.991Z,100.00
2023-03-10T08:09:19.347Z,100.00
2023-03-10T08:27:07.929Z,100.00
2023-03-10T08:29:36.535Z,100.00
2023-03-10T08:32:04.037Z,100.00
2023-03-10T08:34:36.777Z,100.00
2023-03-10T08:37:05.055Z,100.00
2023-03-10T08:39:32.473Z,100.00
2023-03-10T08:41:59.821Z,100.00
2023-03-10T08:44:27.239Z,100.00
2023-03-10T08:46:55.182Z,100.00
2023-03-10T08:49:23.297Z,100.00
2023-03-10T08:51:50.742Z,100.00
2023-03-10T08:54:22.634Z,100.00
2023-03-10T08:56:50.599Z,100.00
2023-03-10T08:59:18.360Z,100.00
2023-03-10T09:01:46.259Z,100.00
2023-03-10T09:04:13.918Z,100.00
2023-03-10T09:06:41.469Z,100.00
2023-03-10T09:09:10.660Z,100.00
2023-03-10T09:11:40.890Z,100.00
2023-03-10T09:14:11.589Z,100.00
2023-03-10T09:16:40.436Z,100.00
2023-03-10T09:19:08.143Z,100.00
2023-03-10T09:21:35.724Z,100.00
2023-03-10T09:24:04.627Z,100.00
2023-03-10T09:26:32.328Z,100.00
2023-03-10T09:28:59.655Z,100.00
2023-03-10T09:31:35.321Z,100.00
2023-03-10T09:34:04.467Z,100.00
2023-03-10T09:36:32.915Z,100.00
2023-03-10T09:39:01.328Z,100.00
2023-03-10T09:42:14.965Z,100.00
2023-03-10T09:45:00.499Z,100.00
2023-03-10T09:47:48.168Z,100.00
2023-03-10T09:50:49.737Z,100.00
2023-03-10T09:54:04.103Z,100.00
2023-03-10T09:56:35.970Z,100.00
2023-03-10T09:59:33.821Z,100.00
2023-03-10T10:02:15.839Z,100.00
2023-03-10T10:04:43.907Z,100.00
2023-03-10T10:07:25.004Z,100.00
2023-03-10T10:10:20.287Z,100.00
2023-03-10T10:12:52.585Z,100.00
2023-03-10T10:15:26.798Z,100.00
2023-03-10T10:18:31.164Z,100.00
2023-03-10T10:21:13.985Z,100.00
2023-03-10T10:23:54.236Z,100.00
2023-03-10T10:26:26.620Z,100.00
2023-03-10T10:29:07.006Z,100.00
2023-03-10T10:31:36.111Z,100.00
2023-03-10T10:34:21.488Z,100.00
2023-03-10T10:36:55.419Z,100.00
2023-03-10T10:39:40.680Z,100.00
2023-03-10T10:42:32.746Z,100.00
2023-03-10T10:45:35.683Z,100.00
2023-03-10T10:48:03.960Z,100.00
2023-03-10T10:50:37.595Z,100.00
2023-03-10T10:53:21.781Z,100.00
2023-03-10T10:56:18.966Z,100.00
2023-03-10T10:59:16.098Z,100.00
2023-03-10T11:01:56.549Z,100.00
2023-03-10T11:04:48.785Z,100.00
2023-03-10T11:07:27.398Z,100.00
2023-03-10T11:09:58.229Z,100.00
2023-03-10T11:13:15.778Z,100.00
2023-03-10T11:16:22.149Z,100.00
2023-03-10T11:19:20.978Z,100.00
2023-03-10T11:21:58.827Z,100.00
2023-03-10T11:25:26.411Z,100.00
2023-03-10T11:28:36.856Z,100.00
2023-03-10T11:31:47.496Z,100.00
2023-03-10T11:34:30.672Z,100.00
2023-03-10T11:37:55.614Z,100.00
2023-03-10T11:40:50.999Z,100.00
2023-03-10T11:43:55.593Z,100.00
2023-03-10T11:47:18.868Z,100.00
2023-03-10T11:50:08.999Z,100.00
2023-03-10T11:52:37.477Z,100.00
2023-03-10T11:55:20.924Z,100.00
2023-03-10T11:57:55.303Z,100.00
2023-03-10T12:00:38.253Z,100.00
2023-03-10T12:04:02.205Z,100.00
2023-03-10T12:07:22.407Z,100.00
2023-03-10T12:10:01.368Z,100.00
2023-03-10T12:12:37.905Z,100.00
2023-03-10T12:15:37.128Z,100.00
2023-03-10T12:18:07.890Z,100.00
2023-03-10T12:20:36.524Z,100.00
2023-03-10T12:23:09.747Z,100.00
2023-03-10T12:25:38.148Z,100.00
2023-03-10T12:28:17.232Z,100.00
2023-03-10T12:31:35.210Z,100.00
2023-03-10T12:34:32.348Z,100.00
2023-03-10T12:37:12.066Z,100.00
2023-03-10T12:39:44.401Z,100.00
2023-03-10T12:42:34.566Z,100.00
2023-03-10T12:45:29.323Z,100.00
2023-03-10T12:48:18.306Z,100.00
2023-03-10T12:51:05.087Z,100.00
2023-03-10T12:54:26.069Z,100.00
2023-03-10T12:57:37.220Z,100.00
2023-03-10T13:00:45.417Z,100.00
2023-03-10T13:03:41.851Z,100.00
2023-03-10T13:06:36.929Z,100.00
2023-03-10T13:09:33.129Z,100.00
2023-03-10T13:12:46.076Z,100.00
2023-03-10T13:15:32.459Z,100.00
2023-03-10T13:18:22.390Z,100.00
2023-03-10T13:20:50.480Z,100.00
2023-03-10T13:23:32.453Z,100.00
2023-03-10T13:26:07.739Z,100.00
2023-03-10T13:28:36.516Z,100.00
2023-03-10T13:31:33.702Z,100.00
2023-03-10T13:34:22.051Z,100.00
2023-03-10T13:36:49.831Z,100.00
2023-03-10T13:39:27.421Z,100.00
2023-03-10T13:42:01.371Z,100.00
2023-03-10T13:44:40.837Z,100.00
2023-03-10T13:47:21.898Z,100.00
2023-03-10T13:50:01.393Z,100.00
2023-03-10T13:52:31.760Z,100.00
2023-03-10T13:55:17.122Z,100.00
2023-03-10T13:57:48.315Z,100.00
2023-03-10T14:00:26.278Z,100.00
2023-03-10T14:02:54.973Z,100.00
2023-03-10T14:05:47.508Z,100.00
2023-03-10T14:08:32.452Z,100.00
2023-03-10T14:11:44.662Z,100.00
2023-03-10T14:14:25.601Z,100.00
2023-03-10T14:17:00.714Z,100.00
2023-03-10T14:19:42.974Z,100.00
2023-03-10T14:22:41.548Z,95.82
2023-03-10T14:25:22.792Z,95.62
2023-03-10T14:28:12.784Z,96.04
2023-03-10T14:30:44.271Z,95.02
2023-03-10T14:33:16.620Z,94.37
2023-03-10T14:35:48.359Z,92.02
2023-03-10T14:38:17.161Z,93.58
2023-03-10T14:40:54.237Z,91.78
2023-03-10T14:43:27.503Z,92.74
2023-03-10T14:46:01.338Z,100.00
2023-03-10T14:48:35.687Z,100.00
2023-03-10T14:51:03.278Z,100.00
2023-03-10T14:53:31.885Z,100.00
2023-03-10T14:56:02.587Z,100.00
2023-03-10T14:58:44.330Z,100.00
2023-03-10T15:01:11.739Z,100.00
2023-03-10T15:03:39.087Z,100.00
2023-03-10T15:06:07.335Z,99.72
2023-03-10T15:08:34.757Z,100.00
2023-03-10T15:11:02.573Z,96.97
2023-03-10T15:13:29.930Z,97.05
2023-03-10T15:15:57.401Z,96.47
2023-03-10T15:18:27.092Z,90.30
2023-03-10T15:20:59.295Z,90.21
2023-03-10T15:23:30.905Z,90.40
2023-03-10T15:25:59.138Z,89.27
2023-03-10T15:28:26.668Z,88.45
2023-03-10T15:30:54.801Z,89.16
2023-03-10T15:33:22.211Z,89.13
2023-03-10T15:35:50.029Z,88.51
2023-03-10T15:38:17.463Z,86.56
2023-03-10T15:40:44.864Z,85.63
2023-03-10T15:43:12.882Z,85.24
2023-03-10T15:45:49.116Z,84.33
2023-03-10T15:48:17.153Z,85.73
2023-03-10T15:50:48.966Z,84.23
2023-03-10T15:53:16.350Z,84.02
2023-03-10T15:55:43.965Z,83.12
2023-03-10T15:58:12.514Z,82.53
2023-03-10T16:00:42.286Z,81.86
2023-03-10T16:03:11.230Z,82.61
2023-03-10T16:05:39.263Z,80.30
2023-03-10T16:08:06.838Z,81.03
2023-03-10T16:10:39.939Z,80.59
2023-03-10T16:13:07.820Z,80.39
2023-03-10T16:15:39.388Z,79.11
2023-03-10T16:18:06.651Z,77.27
2023-03-10T16:20:34.076Z,76.54
2023-03-10T16:23:02.052Z,76.78
2023-03-10T16:25:29.433Z,76.28
2023-03-10T16:27:56.745Z,76.30
2023-03-10T16:30:24.300Z,76.41
2023-03-10T16:32:51.848Z,76.61
2023-03-10T16:35:19.518Z,75.29
2023-03-10T16:37:46.811Z,74.90
2023-03-10T16:40:14.685Z,74.59
2023-03-10T16:42:45.513Z,74.96
2023-03-10T16:45:13.479Z,74.13
2023-03-10T16:47:41.179Z,74.37
2023-03-10T16:50:12.684Z,74.25
2023-03-10T16:52:42.968Z,73.95
2023-03-10T16:55:17.339Z,72.88
2023-03-10T16:57:45.856Z,73.16
2023-03-10T17:00:15.366Z,72.47
2023-03-10T17:02:42.720Z,72.20
2023-03-10T17:05:10.369Z,72.63
2023-03-10T17:07:46.415Z,72.22
2023-03-10T17:10:21.079Z,71.10
2023-03-10T17:12:48.469Z,70.76
2023-03-10T17:15:16.031Z,69.62
2023-03-10T17:17:43.485Z,69.59
2023-03-10T17:20:12.499Z,69.42
2023-03-10T17:22:40.205Z,67.89
2023-03-10T17:25:08.611Z,67.72
2023-03-10T17:27:35.941Z,67.60
2023-03-10T17:30:03.546Z,67.48
2023-03-10T17:32:31.000Z,68.27
2023-03-10T17:34:58.410Z,68.34
2023-03-10T17:37:25.784Z,67.21
2023-03-10T17:39:54.533Z,67.05
2023-03-10T17:42:22.642Z,67.13
2023-03-10T17:44:50.044Z,67.16
2023-03-10T17:47:17.411Z,67.24
2023-03-10T17:49:45.511Z,67.23
2023-03-10T17:52:12.845Z,67.41
2023-03-10T17:54:40.643Z,67.89
2023-03-10T17:57:08.107Z,68.05
2023-03-10T17:59:39.065Z,70.19
2023-03-10T18:02:06.721Z,71.72
2023-03-10T18:04:36.497Z,71.97
2023-03-10T18:07:03.874Z,71.41
2023-03-10T18:09:31.211Z,70.36
2023-03-10T18:11:58.689Z,72.62
2023-03-10T18:14:26.643Z,74.98
2023-03-10T18:16:53.976Z,74.32
2023-03-10T18:19:21.548Z,73.58
2023-03-10T18:21:51.026Z,72.33
2023-03-10T18:24:18.399Z,72.38
2023-03-10T18:26:45.802Z,72.27
2023-03-10T18:29:14.374Z,72.28
2023-03-10T18:31:41.865Z,72.56
2023-03-10T18:34:10.231Z,73.28
2023-03-10T18:36:37.657Z,73.27
2023-03-10T18:39:07.254Z,72.97
2023-03-10T18:41:35.450Z,73.22
2023-03-10T18:44:02.993Z,74.32
2023-03-10T18:46:30.682Z,74.61
2023-03-10T18:48:58.067Z,74.95
2023-03-10T18:51:28.705Z,81.90
2023-03-10T18:53:55.961Z,86.43
2023-03-10T18:56:26.014Z,88.84
2023-03-10T18:58:53.588Z,89.85
2023-03-10T19:01:21.609Z,95.33
2023-03-10T19:03:49.320Z,97.51
2023-03-10T19:06:16.670Z,98.13
2023-03-10T19:08:44.149Z,100.00
2023-03-10T19:11:12.148Z,100.00
2023-03-10T19:13:40.548Z,100.00
2023-03-10T19:16:10.794Z,100.00
2023-03-10T19:18:38.438Z,100.00
2023-03-10T19:21:06.939Z,100.00
2023-03-10T19:23:34.978Z,100.00
2023-03-10T19:26:03.656Z,100.00
2023-03-10T19:28:31.434Z,100.00
2023-03-10T19:30:58.909Z,100.00
2023-03-10T19:33:26.657Z,100.00
2023-03-10T19:36:05.326Z,100.00
2023-03-10T19:38:36.808Z,100.00
2023-03-10T19:41:06.650Z,100.00
2023-03-10T19:43:35.856Z,100.00
2023-03-10T19:46:11.630Z,100.00
2023-03-10T19:48:40.558Z,100.00
2023-03-10T19:51:09.144Z,100.00
2023-03-10T19:53:36.736Z,100.00
2023-03-10T19:56:07.659Z,100.00
2023-03-10T19:58:34.967Z,100.00
2023-03-10T20:01:02.409Z,100.00
2023-03-10T20:03:31.684Z,100.00
2023-03-10T20:05:59.051Z,100.00
2023-03-10T20:08:26.546Z,100.00
2023-03-10T20:10:53.829Z,100.00
2023-03-10T20:13:21.185Z,100.00
2023-03-10T20:15:49.180Z,100.00
2023-03-10T20:18:18.470Z,100.00
2023-03-10T20:20:45.962Z,99.82
2023-03-10T20:23:15.323Z,100.00
2023-03-10T20:25:43.599Z,100.00
2023-03-10T20:28:11.282Z,100.00
2023-03-10T20:30:39.915Z,100.00
2023-03-10T20:33:08.159Z,99.10
2023-03-10T20:35:37.202Z,98.20
2023-03-10T20:38:04.611Z,98.51
2023-03-10T20:40:32.018Z,100.00
2023-03-10T20:42:59.722Z,99.18
